Time;durP1;ratioP1;P1;durP2;ratioP2;P2;SDS_P1;SDS_P2;PMS_P1;PMS_P2;Temp;Humidity;BMP_temperature;BMP_pressure;BME280_temperature;BME280_humidity;BME280_pressure;Samples;Min_cycle;Max_cycle;Signal;HPM_P1;HPM_P2
2021/12/27 00:00:46;;;;;;;;;;;5.10;99.90;;;;;;5105378;27;20427;-64
2021/12/27 00:03:11;;;;;;;;;;;5.10;99.90;;;;;;5093842;27;19920;-62
2021/12/27 00:05:37;;;;;;;;;;;5.00;99.90;;;;;;5108251;27;19916;-63
2021/12/27 00:08:03;;;;;;;;;;;4.90;99.90;;;;;;5093359;27;20485;-64
2021/12/27 00:10:28;;;;;;;;;;;5.00;99.90;;;;;;5101796;27;19919;-64
2021/12/27 00:12:54;;;;;;;;;;;5.10;99.90;;;;;;5100122;27;19977;-64
2021/12/27 00:15:20;;;;;;;;;;;5.10;99.90;;;;;;5115459;27;19916;-64
2021/12/27 00:17:46;;;;;;;;;;;5.00;99.90;;;;;;5106842;27;19926;-63
2021/12/27 00:20:14;;;;;;;;;;;5.00;99.90;;;;;;5108825;27;19920;-62
2021/12/27 00:22:40;;;;;;;;;;;5.00;99.90;;;;;;5098080;27;19924;-63
2021/12/27 00:25:05;;;;;;;;;;;5.00;99.90;;;;;;5076581;28;19920;-63
2021/12/27 00:27:31;;;;;;;;;;;5.00;99.90;;;;;;5079832;27;19915;-63
2021/12/27 00:29:56;;;;;;;;;;;5.00;99.90;;;;;;5095780;27;19916;-63
2021/12/27 00:32:22;;;;;;;;;;;5.00;99.90;;;;;;5097228;27;20394;-63
2021/12/27 00:34:47;;;;;;;;;;;5.00;99.90;;;;;;5105644;27;20277;-63
2021/12/27 00:37:13;;;;;;;;;;;4.90;99.90;;;;;;5101271;27;20892;-63
2021/12/27 00:39:39;;;;;;;;;;;5.00;99.90;;;;;;5109402;27;19916;-64
2021/12/27 00:42:05;;;;;;;;;;;4.90;99.90;;;;;;5115219;27;20011;-62
2021/12/27 00:44:31;;;;;;;;;;;4.90;99.90;;;;;;5105040;27;20505;-63
2021/12/27 00:46:56;;;;;;;;;;;4.90;99.90;;;;;;5108325;27;19927;-63
2021/12/27 00:49:22;;;;;;;;;;;4.90;99.90;;;;;;5100362;27;19930;-61
2021/12/27 00:51:48;;;;;;;;;;;4.90;99.90;;;;;;5108886;27;20326;-63
2021/12/27 00:54:14;;;;;;;;;;;5.00;99.90;;;;;;5102915;27;19993;-63
2021/12/27 00:56:39;;;;;;;;;;;4.90;99.90;;;;;;5109234;27;20023;-62
2021/12/27 00:59:05;;;;;;;;;;;4.90;99.90;;;;;;5112967;27;19924;-62
2021/12/27 01:01:30;;;;;;;;;;;5.00;99.90;;;;;;5106250;27;19920;-63
2021/12/27 01:03:56;;;;;;;;;;;5.00;99.90;;;;;;5085576;28;20007;-62
2021/12/27 01:06:21;;;;;;;;;;;5.00;99.90;;;;;;5109113;27;19915;-62
2021/12/27 01:08:47;;;;;;;;;;;5.00;99.90;;;;;;5110921;27;19987;-63
2021/12/27 01:13:59;;;;;;;;;;;5.00;99.90;;;;;;5106159;27;19920;-62
2021/12/27 01:16:24;;;;;;;;;;;4.90;99.90;;;;;;5100294;27;20490;-63
2021/12/27 01:18:50;;;;;;;;;;;4.90;99.90;;;;;;5107932;27;19919;-60
2021/12/27 01:21:17;;;;;;;;;;;5.10;99.90;;;;;;5107767;27;19989;-62
2021/12/27 01:23:42;;;;;;;;;;;5.10;99.90;;;;;;5104891;27;19915;-62
2021/12/27 01:26:08;;;;;;;;;;;4.90;99.90;;;;;;5101862;27;19991;-62
2021/12/27 01:28:34;;;;;;;;;;;5.00;99.90;;;;;;5109685;27;19916;-63
2021/12/27 01:30:59;;;;;;;;;;;5.10;99.90;;;;;;5115995;27;19916;-63
2021/12/27 01:33:25;;;;;;;;;;;5.00;99.90;;;;;;5113534;27;19915;-62
2021/12/27 01:35:51;;;;;;;;;;;5.00;99.90;;;;;;5108070;27;20356;-63
2021/12/27 01:38:17;;;;;;;;;;;5.10;99.90;;;;;;5089263;28;19927;-63
2021/12/27 01:40:44;;;;;;;;;;;5.10;99.90;;;;;;5107352;27;20148;-62
2021/12/27 01:43:11;;;;;;;;;;;5.10;99.90;;;;;;5105277;27;19967;-62
2021/12/27 01:45:39;;;;;;;;;;;4.90;99.90;;;;;;5107825;27;20077;-63
2021/12/27 01:48:06;;;;;;;;;;;5.00;99.90;;;;;;5107014;27;19920;-63
2021/12/27 01:50:32;;;;;;;;;;;5.00;99.90;;;;;;5112442;27;19931;-63
2021/12/27 01:52:57;;;;;;;;;;;5.00;99.90;;;;;;5106169;27;19920;-62
2021/12/27 01:55:23;;;;;;;;;;;5.00;99.90;;;;;;5116072;27;19915;-63
2021/12/27 01:57:48;;;;;;;;;;;5.10;99.90;;;;;;5104840;27;20274;-63
2021/12/27 02:00:14;;;;;;;;;;;5.10;99.90;;;;;;5108552;27;19927;-62
2021/12/27 02:02:40;;;;;;;;;;;5.00;99.90;;;;;;5082262;27;19927;-62
2021/12/27 02:05:05;;;;;;;;;;;5.00;99.90;;;;;;5090458;27;19920;-63
2021/12/27 02:07:31;;;;;;;;;;;5.00;99.90;;;;;;5093502;27;20556;-63
2021/12/27 02:10:02;;;;;;;;;;;5.10;99.90;;;;;;5086878;27;19916;-63
2021/12/27 02:12:31;;;;;;;;;;;5.00;99.90;;;;;;5111726;27;19954;-63
2021/12/27 02:14:57;;;;;;;;;;;5.10;99.90;;;;;;5103860;27;20015;-62
2021/12/27 02:17:23;;;;;;;;;;;5.20;99.90;;;;;;5108132;27;20007;-62
2021/12/27 02:19:49;;;;;;;;;;;5.10;99.90;;;;;;5112992;27;20009;-62
2021/12/27 02:22:14;;;;;;;;;;;5.10;99.90;;;;;;5103900;27;20372;-63
2021/12/27 02:24:40;;;;;;;;;;;5.20;99.90;;;;;;5099628;27;20015;-63
2021/12/27 02:27:06;;;;;;;;;;;5.20;99.90;;;;;;5103157;27;19959;-63
2021/12/27 02:29:32;;;;;;;;;;;5.20;99.90;;;;;;5110297;27;19916;-62
2021/12/27 02:31:57;;;;;;;;;;;5.10;99.90;;;;;;5104206;27;20324;-62
2021/12/27 02:34:22;;;;;;;;;;;5.00;99.90;;;;;;5099805;27;19970;-62
2021/12/27 02:36:48;;;;;;;;;;;5.20;99.90;;;;;;5106200;27;19959;-62
2021/12/27 02:39:14;;;;;;;;;;;5.00;99.90;;;;;;5107951;27;19924;-62
2021/12/27 02:41:39;;;;;;;;;;;5.00;99.90;;;;;;5107032;27;19931;-62
2021/12/27 02:44:05;;;;;;;;;;;5.00;99.90;;;;;;5102134;27;19926;-62
2021/12/27 02:46:31;;;;;;;;;;;5.00;99.90;;;;;;5113427;27;20335;-62
2021/12/27 02:48:57;;;;;;;;;;;5.00;99.90;;;;;;5101997;27;21527;-62
2021/12/27 02:51:22;;;;;;;;;;;5.00;99.90;;;;;;5097651;27;19923;-62
2021/12/27 02:53:48;;;;;;;;;;;5.00;99.90;;;;;;5110891;27;19920;-62
2021/12/27 02:56:14;;;;;;;;;;;4.90;99.90;;;;;;5107473;27;20405;-62
2021/12/27 02:58:39;;;;;;;;;;;5.00;99.90;;;;;;5089917;28;19928;-62
2021/12/27 03:01:09;;;;;;;;;;;5.20;99.90;;;;;;5091864;27;20010;-63
2021/12/27 03:03:35;;;;;;;;;;;5.20;99.90;;;;;;5111268;27;19952;-62
2021/12/27 03:06:01;;;;;;;;;;;5.20;99.90;;;;;;5105498;27;19922;-62
2021/12/27 03:08:27;;;;;;;;;;;5.10;99.90;;;;;;5108904;27;20379;-62
2021/12/27 03:10:54;;;;;;;;;;;5.10;99.90;;;;;;5119580;27;19963;-62
2021/12/27 03:13:30;;;;;;;;;;;5.10;99.90;;;;;;5109553;27;19916;-63
2021/12/27 03:15:58;;;;;;;;;;;4.90;99.90;;;;;;5111667;27;19966;-62
2021/12/27 03:18:24;;;;;;;;;;;5.00;99.90;;;;;;5109667;27;19923;-62
2021/12/27 03:20:51;;;;;;;;;;;5.00;99.90;;;;;;5105746;27;20433;-62
2021/12/27 03:23:16;;;;;;;;;;;5.10;99.90;;;;;;5112040;27;20606;-63
2021/12/27 03:25:42;;;;;;;;;;;5.10;99.90;;;;;;5105083;27;19926;-62
2021/12/27 03:28:08;;;;;;;;;;;5.10;99.90;;;;;;5104640;27;19969;-62
2021/12/27 03:30:33;;;;;;;;;;;5.00;99.90;;;;;;5112476;27;19934;-62
2021/12/27 03:32:59;;;;;;;;;;;4.90;99.90;;;;;;5112123;27;19920;-62
2021/12/27 03:35:34;;;;;;;;;;;5.00;99.90;;;;;;5110058;28;20020;-63
2021/12/27 03:38:00;;;;;;;;;;;5.10;99.90;;;;;;5109904;27;19926;-63
2021/12/27 03:40:26;;;;;;;;;;;5.10;99.90;;;;;;5111678;28;20531;-62
2021/12/27 03:42:52;;;;;;;;;;;5.00;99.90;;;;;;5110795;28;19944;-63
2021/12/27 03:45:19;;;;;;;;;;;5.00;99.90;;;;;;5116090;27;20056;-63
2021/12/27 03:47:45;;;;;;;;;;;5.10;99.90;;;;;;5110484;28;19920;-63
2021/12/27 03:50:11;;;;;;;;;;;5.20;99.90;;;;;;5109731;27;19918;-62
2021/12/27 03:52:37;;;;;;;;;;;5.60;99.90;;;;;;5099054;28;20281;-62
2021/12/27 03:55:03;;;;;;;;;;;5.30;99.90;;;;;;5103305;28;20260;-62
2021/12/27 03:57:31;;;;;;;;;;;5.30;99.90;;;;;;5091103;28;20327;-63
2021/12/27 04:02:41;;;;;;;;;;;5.30;99.90;;;;;;5106300;28;19931;-62
2021/12/27 04:05:10;;;;;;;;;;;5.20;99.90;;;;;;5109664;28;19916;-62
2021/12/27 04:07:37;;;;;;;;;;;5.50;99.90;;;;;;5111857;28;20354;-62
2021/12/27 04:10:03;;;;;;;;;;;5.50;99.90;;;;;;5105970;27;19992;-61
2021/12/27 04:12:29;;;;;;;;;;;5.50;99.90;;;;;;5111407;28;20409;-63
2021/12/27 04:14:55;;;;;;;;;;;5.50;99.90;;;;;;5107370;28;19920;-62
2021/12/27 04:17:20;;;;;;;;;;;5.50;99.90;;;;;;5106352;28;20287;-63
2021/12/27 04:19:46;;;;;;;;;;;5.50;99.90;;;;;;5113156;28;19916;-63
2021/12/27 04:22:11;;;;;;;;;;;5.50;99.90;;;;;;5111421;27;19976;-63
2021/12/27 04:24:37;;;;;;;;;;;5.40;99.90;;;;;;5107465;28;19916;-63
2021/12/27 04:27:03;;;;;;;;;;;5.40;99.90;;;;;;5107489;27;20018;-62
2021/12/27 04:29:28;;;;;;;;;;;5.30;99.90;;;;;;5115155;28;19916;-63
2021/12/27 04:31:53;;;;;;;;;;;5.30;99.90;;;;;;5106599;28;19972;-63
2021/12/27 04:34:19;;;;;;;;;;;5.30;99.90;;;;;;5104250;28;20290;-63
2021/12/27 04:36:44;;;;;;;;;;;5.40;99.90;;;;;;5105645;28;19920;-63
2021/12/27 04:39:10;;;;;;;;;;;5.30;99.90;;;;;;5108808;28;19919;-63
2021/12/27 04:41:35;;;;;;;;;;;5.30;99.90;;;;;;5108392;28;19966;-63
2021/12/27 04:44:01;;;;;;;;;;;5.20;99.90;;;;;;5105178;28;19951;-63
2021/12/27 04:46:26;;;;;;;;;;;5.30;99.90;;;;;;5091581;27;20338;-63
2021/12/27 04:48:52;;;;;;;;;;;5.40;99.90;;;;;;5106746;27;20269;-62
2021/12/27 04:51:20;;;;;;;;;;;5.40;99.90;;;;;;5108635;27;20260;-62
2021/12/27 04:53:46;;;;;;;;;;;5.50;99.90;;;;;;5078041;27;19946;-62
2021/12/27 04:56:12;;;;;;;;;;;5.50;99.90;;;;;;5109221;27;20359;-63
2021/12/27 04:58:37;;;;;;;;;;;5.50;99.90;;;;;;5107911;27;19927;-62
2021/12/27 05:01:03;;;;;;;;;;;5.40;99.90;;;;;;5109404;27;20257;-62
2021/12/27 05:03:28;;;;;;;;;;;5.60;99.90;;;;;;5111509;27;19966;-62
2021/12/27 05:05:54;;;;;;;;;;;5.60;99.90;;;;;;5112648;27;19920;-63
2021/12/27 05:08:19;;;;;;;;;;;5.60;99.90;;;;;;5086680;27;20559;-62
2021/12/27 05:10:45;;;;;;;;;;;5.70;99.90;;;;;;5113624;27;19927;-62
2021/12/27 05:13:10;;;;;;;;;;;5.60;99.90;;;;;;5110110;27;19955;-62
2021/12/27 05:15:36;;;;;;;;;;;5.60;99.90;;;;;;5094272;28;19923;-62
2021/12/27 05:18:03;;;;;;;;;;;5.70;99.90;;;;;;5113067;27;19959;-62
2021/12/27 05:20:28;;;;;;;;;;;5.60;99.90;;;;;;5103216;27;19922;-62
2021/12/27 05:22:54;;;;;;;;;;;5.60;99.90;;;;;;5105758;27;19919;-62
2021/12/27 05:25:19;;;;;;;;;;;5.60;99.90;;;;;;5111563;27;19944;-62
2021/12/27 05:27:45;;;;;;;;;;;5.50;99.90;;;;;;5105263;27;19916;-63
2021/12/27 05:30:12;;;;;;;;;;;5.50;99.90;;;;;;5098468;27;20437;-62
2021/12/27 05:32:38;;;;;;;;;;;5.40;99.90;;;;;;5106025;27;19915;-63
2021/12/27 05:35:04;;;;;;;;;;;5.50;99.90;;;;;;5099948;27;20401;-63
2021/12/27 05:37:30;;;;;;;;;;;5.50;99.90;;;;;;5111970;27;19920;-63
2021/12/27 05:39:57;;;;;;;;;;;;;;;;;;5109756;27;20316;-63
2021/12/27 05:42:22;;;;;;;;;;;5.80;99.90;;;;;;5104980;27;19980;-62
2021/12/27 05:44:48;;;;;;;;;;;5.80;99.90;;;;;;5112390;27;19927;-63
2021/12/27 05:47:13;;;;;;;;;;;5.70;99.90;;;;;;5102372;27;19924;-62
2021/12/27 05:49:39;;;;;;;;;;;5.70;99.90;;;;;;5098763;27;19932;-63
2021/12/27 05:52:04;;;;;;;;;;;5.80;99.90;;;;;;5108635;27;19951;-63
2021/12/27 05:54:30;;;;;;;;;;;5.70;99.90;;;;;;5103930;27;20411;-62
2021/12/27 05:56:55;;;;;;;;;;;5.80;99.90;;;;;;5109781;27;19919;-61
2021/12/27 05:59:21;;;;;;;;;;;5.70;99.90;;;;;;5116786;27;20184;-62
2021/12/27 06:01:46;;;;;;;;;;;5.80;99.90;;;;;;5097545;27;19916;-63
2021/12/27 06:04:12;;;;;;;;;;;5.70;99.90;;;;;;5110132;27;19922;-63
2021/12/27 06:06:37;;;;;;;;;;;5.80;99.90;;;;;;5088000;27;19916;-63
2021/12/27 06:09:04;;;;;;;;;;;5.80;99.90;;;;;;5099456;27;19920;-62
2021/12/27 06:11:30;;;;;;;;;;;5.80;99.90;;;;;;5105561;27;19920;-63
2021/12/27 06:13:55;;;;;;;;;;;5.70;99.90;;;;;;5104566;27;19954;-62
2021/12/27 06:16:21;;;;;;;;;;;5.70;99.90;;;;;;5084267;28;19926;-63
2021/12/27 06:18:47;;;;;;;;;;;5.70;99.90;;;;;;5110233;27;19965;-62
2021/12/27 06:21:12;;;;;;;;;;;5.70;99.90;;;;;;5096955;27;19922;-62
2021/12/27 06:23:38;;;;;;;;;;;5.70;99.90;;;;;;5086249;27;19969;-62
2021/12/27 06:26:03;;;;;;;;;;;5.70;99.90;;;;;;5092015;27;19921;-63
2021/12/27 06:28:31;;;;;;;;;;;5.70;99.90;;;;;;5087709;27;19924;-62
2021/12/27 06:30:57;;;;;;;;;;;5.60;99.90;;;;;;5089337;27;19942;-62
2021/12/27 06:33:23;;;;;;;;;;;5.70;99.90;;;;;;5080081;27;20049;-63
2021/12/27 06:35:48;;;;;;;;;;;5.70;99.90;;;;;;5101006;27;19936;-63
2021/12/27 06:38:14;;;;;;;;;;;5.80;99.90;;;;;;5099436;27;19923;-62
2021/12/27 06:40:39;;;;;;;;;;;5.80;99.90;;;;;;5104970;27;19923;-63
2021/12/27 06:43:05;;;;;;;;;;;5.80;99.90;;;;;;5111795;27;20011;-62
2021/12/27 06:45:30;;;;;;;;;;;5.80;99.90;;;;;;5107874;27;19939;-63
2021/12/27 06:47:56;;;;;;;;;;;;;;;;;;5110905;27;19977;-62
2021/12/27 06:50:23;;;;;;;;;;;6.10;99.90;;;;;;5104897;27;24397;-63
2021/12/27 06:52:49;;;;;;;;;;;6.00;99.90;;;;;;5106387;27;19973;-63
2021/12/27 06:55:14;;;;;;;;;;;5.90;99.90;;;;;;5105529;27;19928;-63
2021/12/27 06:57:40;;;;;;;;;;;6.10;99.90;;;;;;5082294;28;20018;-63
2021/12/27 07:00:07;;;;;;;;;;;6.00;99.90;;;;;;5084984;27;19923;-63
2021/12/27 07:02:33;;;;;;;;;;;6.00;99.90;;;;;;5095930;27;20489;-63
2021/12/27 07:04:58;;;;;;;;;;;6.00;99.90;;;;;;5112403;27;20215;-62
2021/12/27 07:07:24;;;;;;;;;;;5.90;99.90;;;;;;5102521;27;19920;-63
2021/12/27 07:09:49;;;;;;;;;;;5.90;99.90;;;;;;5087382;28;19920;-62
2021/12/27 07:12:15;;;;;;;;;;;5.80;99.90;;;;;;5086505;28;19966;-63
2021/12/27 07:14:41;;;;;;;;;;;5.80;99.90;;;;;;5111308;27;19916;-63
2021/12/27 07:17:07;;;;;;;;;;;5.90;99.90;;;;;;5105916;27;19920;-63
2021/12/27 07:19:32;;;;;;;;;;;5.90;99.90;;;;;;5105522;27;20547;-63
2021/12/27 07:21:58;;;;;;;;;;;6.00;99.90;;;;;;5104326;27;20018;-63
2021/12/27 07:24:23;;;;;;;;;;;5.90;99.90;;;;;;5095681;28;19916;-63
2021/12/27 07:26:49;;;;;;;;;;;5.90;99.90;;;;;;5098792;27;20132;-63
2021/12/27 07:29:14;;;;;;;;;;;6.00;99.90;;;;;;5089140;28;19956;-62
2021/12/27 07:31:40;;;;;;;;;;;6.00;99.90;;;;;;5108575;28;19919;-63
2021/12/27 07:34:05;;;;;;;;;;;5.90;99.90;;;;;;5087705;28;19927;-64
2021/12/27 07:36:31;;;;;;;;;;;5.90;99.90;;;;;;5111351;27;19998;-63
2021/12/27 07:38:57;;;;;;;;;;;6.10;99.90;;;;;;5104914;28;19924;-64
2021/12/27 07:41:22;;;;;;;;;;;6.00;99.90;;;;;;5110388;28;19966;-63
2021/12/27 07:43:48;;;;;;;;;;;5.90;99.90;;;;;;5102534;28;19924;-63
2021/12/27 07:46:13;;;;;;;;;;;6.00;99.90;;;;;;5106483;28;19927;-63
2021/12/27 07:48:39;;;;;;;;;;;5.90;99.90;;;;;;5105226;28;19927;-62
2021/12/27 07:51:04;;;;;;;;;;;5.90;99.90;;;;;;5104752;28;19924;-63
2021/12/27 07:53:30;;;;;;;;;;;6.00;99.90;;;;;;5102295;28;19919;-63
2021/12/27 07:55:56;;;;;;;;;;;6.00;99.90;;;;;;5106316;28;19915;-63
2021/12/27 07:58:21;;;;;;;;;;;6.00;99.90;;;;;;5113663;28;19924;-63
2021/12/27 08:00:50;;;;;;;;;;;6.10;99.90;;;;;;5108703;28;19923;-63
2021/12/27 08:03:19;;;;;;;;;;;6.10;99.90;;;;;;5107359;27;19975;-64
2021/12/27 08:05:46;;;;;;;;;;;6.10;99.90;;;;;;5107136;28;20000;-63
2021/12/27 08:08:12;;;;;;;;;;;6.20;99.90;;;;;;5109500;27;19969;-63
2021/12/27 08:10:37;;;;;;;;;;;6.10;99.90;;;;;;5086797;28;19920;-65
2021/12/27 08:13:03;;;;;;;;;;;6.20;99.90;;;;;;5082127;28;19916;-63
2021/12/27 08:15:28;;;;;;;;;;;6.10;99.90;;;;;;5102991;28;19922;-62
2021/12/27 08:17:54;;;;;;;;;;;6.20;99.90;;;;;;5101445;28;20094;-62
2021/12/27 08:20:19;;;;;;;;;;;6.10;99.90;;;;;;5105954;27;19931;-63
2021/12/27 08:22:45;;;;;;;;;;;6.10;99.90;;;;;;5106141;27;19926;-63
2021/12/27 08:25:11;;;;;;;;;;;6.20;99.90;;;;;;5106831;27;20394;-62
2021/12/27 08:27:37;;;;;;;;;;;6.20;99.90;;;;;;5110148;27;19920;-62
2021/12/27 08:30:05;;;;;;;;;;;6.20;99.90;;;;;;5089007;27;20425;-63
2021/12/27 08:32:31;;;;;;;;;;;6.20;99.90;;;;;;5105073;27;20456;-62
2021/12/27 08:34:57;;;;;;;;;;;6.10;99.90;;;;;;5103106;27;19920;-62
2021/12/27 08:37:22;;;;;;;;;;;6.20;99.90;;;;;;5090219;27;19915;-63
2021/12/27 08:39:48;;;;;;;;;;;6.10;99.90;;;;;;5106554;27;20923;-62
2021/12/27 08:42:13;;;;;;;;;;;6.20;99.90;;;;;;5105771;27;19916;-63
2021/12/27 08:44:39;;;;;;;;;;;6.10;99.90;;;;;;5096362;27;20398;-63
2021/12/27 08:47:05;;;;;;;;;;;6.20;99.90;;;;;;5106668;27;19924;-63
2021/12/27 08:49:31;;;;;;;;;;;6.20;99.90;;;;;;5107974;27;19920;-63
2021/12/27 08:51:56;;;;;;;;;;;6.20;99.90;;;;;;5104523;27;20014;-63
2021/12/27 08:54:22;;;;;;;;;;;6.20;99.90;;;;;;5103952;27;19931;-63
2021/12/27 08:56:47;;;;;;;;;;;6.10;99.90;;;;;;5108147;27;20332;-63
2021/12/27 08:59:13;;;;;;;;;;;6.10;99.90;;;;;;5107108;27;20180;-63
2021/12/27 09:01:38;;;;;;;;;;;6.20;99.90;;;;;;5102160;27;19931;-63
2021/12/27 09:04:04;;;;;;;;;;;6.10;99.90;;;;;;5103692;27;19916;-63
2021/12/27 09:06:33;;;;;;;;;;;6.20;99.90;;;;;;5101031;27;19920;-63
2021/12/27 09:08:59;;;;;;;;;;;6.30;99.90;;;;;;5097646;27;19923;-63
2021/12/27 09:11:25;;;;;;;;;;;6.20;99.90;;;;;;5111346;27;20310;-66
2021/12/27 09:13:50;;;;;;;;;;;6.30;99.90;;;;;;5114639;27;19919;-66
2021/12/27 09:16:16;;;;;;;;;;;6.40;99.90;;;;;;5113861;27;20024;-66
2021/12/27 09:18:41;;;;;;;;;;;6.50;99.90;;;;;;5110879;27;19972;-65
2021/12/27 09:21:07;;;;;;;;;;;6.40;99.90;;;;;;5085525;27;19950;-65
2021/12/27 09:23:34;;;;;;;;;;;6.50;99.90;;;;;;5117337;27;20595;-66
2021/12/27 09:25:59;;;;;;;;;;;6.50;99.90;;;;;;5103233;27;20011;-68
2021/12/27 09:28:25;;;;;;;;;;;6.50;99.90;;;;;;5103367;27;21242;-66
2021/12/27 09:30:50;;;;;;;;;;;6.50;99.90;;;;;;5094555;27;19927;-67
2021/12/27 09:33:16;;;;;;;;;;;6.40;99.90;;;;;;5108812;27;20550;-69
2021/12/27 09:35:41;;;;;;;;;;;6.40;99.90;;;;;;5108862;27;19995;-67
2021/12/27 09:38:08;;;;;;;;;;;6.50;99.90;;;;;;5107626;27;20366;-66
2021/12/27 09:40:34;;;;;;;;;;;6.50;99.90;;;;;;5086417;27;19924;-67
2021/12/27 09:43:00;;;;;;;;;;;6.50;99.90;;;;;;5117395;27;19930;-68
2021/12/27 09:45:25;;;;;;;;;;;6.60;99.90;;;;;;5108582;27;19916;-68
2021/12/27 09:47:51;;;;;;;;;;;6.70;99.90;;;;;;5090424;27;19930;-71
2021/12/27 09:50:22;;;;;;;;;;;6.70;99.90;;;;;;5103567;27;19916;-68
2021/12/27 09:52:48;;;;;;;;;;;6.80;99.90;;;;;;5091146;27;19916;-65
2021/12/27 09:55:15;;;;;;;;;;;6.80;99.90;;;;;;5112925;27;19926;-70
2021/12/27 09:57:41;;;;;;;;;;;6.90;99.90;;;;;;5120684;27;20063;-70
2021/12/27 10:00:07;;;;;;;;;;;6.90;99.90;;;;;;5108730;27;19992;-69
2021/12/27 10:02:37;;;;;;;;;;;6.90;99.90;;;;;;5104819;27;20367;-66
2021/12/27 10:05:03;;;;;;;;;;;6.90;99.90;;;;;;5108637;27;20434;-68
2021/12/27 10:07:28;;;;;;;;;;;6.90;99.90;;;;;;5098231;27;19969;-69
2021/12/27 10:09:54;;;;;;;;;;;6.90;99.90;;;;;;5074168;28;20020;-65
2021/12/27 10:12:22;;;;;;;;;;;7.10;99.90;;;;;;5092317;27;19926;-68
2021/12/27 10:14:53;;;;;;;;;;;7.10;99.90;;;;;;5082390;28;20383;-64
2021/12/27 10:17:18;;;;;;;;;;;7.10;99.90;;;;;;5100151;27;19970;-68
2021/12/27 10:19:44;;;;;;;;;;;7.20;99.90;;;;;;5109401;27;19991;-68
2021/12/27 10:22:10;;;;;;;;;;;7.20;99.90;;;;;;5087541;28;19924;-68
2021/12/27 10:24:36;;;;;;;;;;;7.10;99.90;;;;;;5100962;27;19919;-69
2021/12/27 10:27:02;;;;;;;;;;;7.20;99.90;;;;;;5099557;27;19993;-65
2021/12/27 10:29:31;;;;;;;;;;;7.20;99.90;;;;;;5105347;27;19924;-69
2021/12/27 10:32:04;;;;;;;;;;;7.20;99.90;;;;;;5079541;27;20027;-65
2021/12/27 10:34:33;;;;;;;;;;;7.30;99.90;;;;;;5074551;27;19924;-66
2021/12/27 10:37:00;;;;;;;;;;;7.30;99.90;;;;;;5089497;27;19923;-67
2021/12/27 10:39:41;;;;;;;;;;;7.30;99.90;;;;;;5096180;27;20439;-68
2021/12/27 10:42:08;;;;;;;;;;;7.40;99.90;;;;;;5100664;27;19957;-67
2021/12/27 10:44:34;;;;;;;;;;;7.50;99.90;;;;;;5108066;27;20451;-68
2021/12/27 10:47:00;;;;;;;;;;;7.50;99.90;;;;;;5098117;27;19924;-67
2021/12/27 10:49:43;;;;;;;;;;;7.50;99.90;;;;;;5112085;27;19916;-69
2021/12/27 10:52:08;;;;;;;;;;;7.60;99.90;;;;;;5096082;27;20002;-68
2021/12/27 10:54:35;;;;;;;;;;;7.60;99.90;;;;;;5098829;28;20007;-68
2021/12/27 10:57:02;;;;;;;;;;;7.60;99.90;;;;;;5108732;27;20013;-69
2021/12/27 10:59:28;;;;;;;;;;;7.60;99.90;;;;;;5104042;27;19954;-67
2021/12/27 11:01:53;;;;;;;;;;;7.60;99.90;;;;;;5099964;27;19924;-68
2021/12/27 11:04:19;;;;;;;;;;;7.70;99.90;;;;;;5073069;28;19927;-64
2021/12/27 11:06:45;;;;;;;;;;;7.80;99.90;;;;;;5095174;28;20349;-68
2021/12/27 11:09:14;;;;;;;;;;;7.80;99.90;;;;;;5081609;28;20287;-68
2021/12/27 11:11:39;;;;;;;;;;;7.80;99.90;;;;;;5114967;27;20420;-65
2021/12/27 11:14:05;;;;;;;;;;;7.80;99.90;;;;;;5109689;27;19925;-68
2021/12/27 11:16:31;;;;;;;;;;;7.70;99.90;;;;;;5102889;27;19915;-67
2021/12/27 11:18:57;;;;;;;;;;;7.70;99.90;;;;;;5116276;27;19926;-69
2021/12/27 11:21:28;;;;;;;;;;;7.70;99.90;;;;;;5102965;27;19924;-68
2021/12/27 11:23:54;;;;;;;;;;;7.70;99.90;;;;;;5108501;27;19916;-67
2021/12/27 11:26:24;;;;;;;;;;;7.80;99.90;;;;;;5106783;27;19920;-65
2021/12/27 11:28:49;;;;;;;;;;;7.90;99.90;;;;;;5117161;27;20566;-69
2021/12/27 11:31:28;;;;;;;;;;;7.90;99.90;;;;;;5108715;27;19924;-68
2021/12/27 11:33:56;;;;;;;;;;;7.80;99.90;;;;;;5099871;27;19917;-69
2021/12/27 11:36:23;;;;;;;;;;;7.80;99.90;;;;;;5081775;28;19974;-64
2021/12/27 11:38:48;;;;;;;;;;;7.90;99.90;;;;;;5095140;28;20327;-69
2021/12/27 11:41:23;;;;;;;;;;;7.80;99.90;;;;;;5104088;27;19967;-70
2021/12/27 11:43:55;;;;;;;;;;;7.80;99.90;;;;;;5104652;28;19919;-69
2021/12/27 11:46:22;;;;;;;;;;;7.80;99.90;;;;;;5082384;27;20032;-67
2021/12/27 11:48:49;;;;;;;;;;;7.80;99.90;;;;;;5089522;28;20407;-68
2021/12/27 11:51:15;;;;;;;;;;;7.80;99.90;;;;;;5092987;28;19935;-64
2021/12/27 11:53:40;;;;;;;;;;;7.80;99.90;;;;;;5091647;27;20544;-69
2021/12/27 11:56:09;;;;;;;;;;;7.90;99.90;;;;;;5099020;27;20022;-69
2021/12/27 11:58:45;;;;;;;;;;;8.00;99.90;;;;;;5092238;27;20030;-66
2021/12/27 12:01:20;;;;;;;;;;;7.90;99.90;;;;;;5096373;27;20601;-67
2021/12/27 12:03:46;;;;;;;;;;;7.90;99.90;;;;;;5090731;27;20326;-67
2021/12/27 12:06:30;;;;;;;;;;;8.10;99.90;;;;;;5094381;27;19930;-66
2021/12/27 12:08:56;;;;;;;;;;;8.10;99.90;;;;;;5090311;27;20367;-65
2021/12/27 12:11:30;;;;;;;;;;;8.20;99.90;;;;;;5101304;27;19980;-64
2021/12/27 12:13:55;;;;;;;;;;;8.20;99.90;;;;;;5095545;27;20029;-68
2021/12/27 12:16:23;;;;;;;;;;;8.10;99.90;;;;;;5099646;27;20379;-66
2021/12/27 12:18:51;;;;;;;;;;;8.20;99.90;;;;;;5098041;27;19928;-64
2021/12/27 12:21:36;;;;;;;;;;;8.30;99.90;;;;;;5107635;27;19919;-69
2021/12/27 12:24:10;;;;;;;;;;;8.30;99.90;;;;;;5099267;27;19919;-68
2021/12/27 12:26:54;;;;;;;;;;;8.20;99.90;;;;;;5090870;27;19924;-67
2021/12/27 12:29:20;;;;;;;;;;;8.20;99.90;;;;;;5091034;27;19930;-67
2021/12/27 12:31:46;;;;;;;;;;;8.10;99.90;;;;;;5094153;27;20382;-66
2021/12/27 12:34:14;;;;;;;;;;;8.20;99.90;;;;;;5101838;27;19923;-67
2021/12/27 12:36:44;;;;;;;;;;;8.10;99.90;;;;;;5074499;28;20018;-68
2021/12/27 12:39:09;;;;;;;;;;;8.20;99.90;;;;;;5091988;27;19938;-68
2021/12/27 12:41:35;;;;;;;;;;;8.20;99.90;;;;;;5100334;27;19920;-64
2021/12/27 12:44:01;;;;;;;;;;;8.20;99.90;;;;;;5094785;27;20530;-68
2021/12/27 12:46:28;;;;;;;;;;;8.20;99.90;;;;;;5092528;27;19931;-66
2021/12/27 12:49:05;;;;;;;;;;;8.20;99.90;;;;;;5091587;27;19923;-64
2021/12/27 12:51:30;;;;;;;;;;;8.30;99.90;;;;;;5103389;27;20494;-67
2021/12/27 12:53:56;;;;;;;;;;;8.30;99.90;;;;;;5090206;27;19997;-67
2021/12/27 12:56:27;;;;;;;;;;;8.30;99.90;;;;;;5107088;27;19932;-68
2021/12/27 12:58:53;;;;;;;;;;;8.40;99.90;;;;;;5093045;28;19924;-68
2021/12/27 13:01:18;;;;;;;;;;;8.40;99.90;;;;;;5110542;27;19927;-64
2021/12/27 13:03:44;;;;;;;;;;;8.40;99.90;;;;;;5101271;27;20346;-67
2021/12/27 13:06:10;;;;;;;;;;;8.50;99.90;;;;;;5106552;27;19926;-70
2021/12/27 13:08:35;;;;;;;;;;;8.50;99.90;;;;;;5116912;27;19931;-69
2021/12/27 13:11:02;;;;;;;;;;;8.50;99.90;;;;;;5096893;27;20405;-64
2021/12/27 13:13:28;;;;;;;;;;;8.40;99.90;;;;;;5089711;27;20424;-65
2021/12/27 13:15:55;;;;;;;;;;;8.40;99.90;;;;;;5101768;27;20363;-66
2021/12/27 13:18:22;;;;;;;;;;;8.40;99.90;;;;;;5104088;27;19931;-65
2021/12/27 13:20:52;;;;;;;;;;;8.40;99.90;;;;;;5096995;27;20003;-69
2021/12/27 13:23:19;;;;;;;;;;;8.40;99.90;;;;;;5112379;27;19969;-69
2021/12/27 13:25:45;;;;;;;;;;;8.40;99.90;;;;;;5095821;27;19916;-68
2021/12/27 13:28:12;;;;;;;;;;;8.50;99.90;;;;;;5095781;27;19942;-67
2021/12/27 13:30:43;;;;;;;;;;;8.50;99.90;;;;;;5093415;28;19919;-67
2021/12/27 13:33:09;;;;;;;;;;;8.50;99.90;;;;;;5095153;28;20171;-67
2021/12/27 13:35:34;;;;;;;;;;;8.40;99.90;;;;;;5097083;28;20477;-67
2021/12/27 13:38:00;;;;;;;;;;;8.40;99.90;;;;;;5096949;27;19947;-69
2021/12/27 13:40:25;;;;;;;;;;;8.40;99.90;;;;;;5072084;27;19952;-66
2021/12/27 13:42:51;;;;;;;;;;;8.40;99.90;;;;;;5102212;27;19927;-69
2021/12/27 13:45:17;;;;;;;;;;;8.40;99.90;;;;;;5098280;28;19922;-68
2021/12/27 13:47:52;;;;;;;;;;;8.40;99.90;;;;;;5103762;28;20338;-69
2021/12/27 13:50:25;;;;;;;;;;;8.50;99.90;;;;;;5113446;27;20338;-64
2021/12/27 13:52:50;;;;;;;;;;;8.40;99.90;;;;;;5107548;27;19920;-68
2021/12/27 13:55:20;;;;;;;;;;;8.50;99.90;;;;;;5103181;27;19922;-68
2021/12/27 13:57:46;;;;;;;;;;;8.50;99.90;;;;;;5112901;27;19927;-68
2021/12/27 14:00:12;;;;;;;;;;;8.50;99.90;;;;;;5108698;27;19916;-68
2021/12/27 14:02:41;;;;;;;;;;;8.50;99.90;;;;;;5106402;27;19915;-64
2021/12/27 14:05:07;;;;;;;;;;;8.60;99.90;;;;;;5098558;27;19923;-69
2021/12/27 14:07:33;;;;;;;;;;;8.70;99.90;;;;;;5104420;27;19923;-64
2021/12/27 14:09:58;;;;;;;;;;;8.60;99.90;;;;;;5103986;27;19920;-68
2021/12/27 14:12:26;;;;;;;;;;;8.60;99.90;;;;;;5089971;27;19924;-64
2021/12/27 14:14:52;;;;;;;;;;;8.50;99.90;;;;;;5103226;27;19923;-69
2021/12/27 14:17:21;;;;;;;;;;;8.50;99.90;;;;;;5090358;28;20391;-68
2021/12/27 14:20:06;;;;;;;;;;;8.60;99.90;;;;;;5108339;27;20387;-68
2021/12/27 14:22:41;;;;;;;;;;;8.50;99.90;;;;;;5102533;27;19931;-68
2021/12/27 14:25:08;;;;;;;;;;;8.40;99.90;;;;;;5104012;27;20351;-66
2021/12/27 14:27:49;;;;;;;;;;;8.50;99.90;;;;;;5103672;27;19919;-67
2021/12/27 14:30:21;;;;;;;;;;;8.50;99.90;;;;;;5106480;27;19923;-64
2021/12/27 14:32:55;;;;;;;;;;;8.50;99.90;;;;;;5103222;27;19927;-65